createdAt,value
2022-10-10T00:01:54.330Z,5.50
2022-10-10T00:04:22.183Z,5.97
2022-10-10T00:06:49.075Z,6.73
2022-10-10T00:09:15.803Z,6.10
2022-10-10T00:11:42.428Z,6.50
2022-10-10T00:14:09.145Z,5.87
2022-10-10T00:16:36.613Z,6.37
2022-10-10T00:19:03.726Z,6.30
2022-10-10T00:21:30.827Z,5.83
2022-10-10T00:23:57.680Z,5.70
2022-10-10T00:26:24.883Z,6.07
2022-10-10T00:28:51.530Z,5.70
2022-10-10T00:31:19.176Z,5.53
2022-10-10T00:33:46.410Z,6.50
2022-10-10T00:36:16.002Z,6.80
2022-10-10T00:38:43.232Z,6.47
2022-10-10T00:41:09.911Z,6.03
2022-10-10T00:43:37.043Z,6.63
2022-10-10T00:46:04.596Z,6.10
2022-10-10T00:48:41.014Z,6.27
2022-10-10T00:51:18.059Z,6.37
2022-10-10T00:53:48.751Z,6.60
2022-10-10T00:56:19.734Z,6.40
2022-10-10T00:58:51.430Z,6.67
2022-10-10T01:01:18.674Z,6.13
2022-10-10T01:03:45.328Z,7.30
2022-10-10T01:06:12.895Z,6.50
2022-10-10T01:08:40.162Z,6.33
2022-10-10T01:11:28.650Z,6.57
2022-10-10T01:14:07.986Z,7.93
2022-10-10T01:16:45.910Z,6.23
2022-10-10T01:19:18.529Z,7.33
2022-10-10T01:22:26.638Z,6.27
2022-10-10T01:25:05.361Z,6.33
2022-10-10T01:27:42.367Z,6.47
2022-10-10T01:30:21.147Z,7.07
2022-10-10T01:33:08.805Z,6.30
2022-10-10T01:35:53.442Z,7.07
2022-10-10T01:38:39.270Z,7.00
2022-10-10T01:41:17.075Z,7.60
2022-10-10T01:43:44.269Z,6.60
2022-10-10T01:46:13.493Z,6.83
2022-10-10T01:48:41.930Z,7.13
2022-10-10T01:51:39.750Z,6.57
2022-10-10T01:54:16.445Z,6.93
2022-10-10T01:56:59.648Z,7.10
2022-10-10T01:59:54.529Z,7.10
2022-10-10T02:02:45.934Z,7.40
2022-10-10T02:05:20.214Z,7.53
2022-10-10T02:08:14.374Z,8.03
2022-10-10T02:10:48.208Z,7.10
2022-10-10T02:13:18.157Z,7.47
2022-10-10T02:15:51.823Z,7.90
2022-10-10T02:18:23.291Z,7.70
2022-10-10T02:20:53.155Z,8.13
2022-10-10T02:23:22.657Z,8.80
2022-10-10T02:25:55.880Z,8.43
2022-10-10T02:28:29.768Z,8.47
2022-10-10T02:31:00.684Z,9.30
2022-10-10T02:33:45.926Z,8.20
2022-10-10T02:36:14.508Z,8.63
2022-10-10T02:38:42.958Z,8.73
2022-10-10T02:41:13.486Z,8.63
2022-10-10T02:43:40.820Z,8.60
2022-10-10T02:46:11.768Z,10.23
2022-10-10T02:48:38.621Z,8.67
2022-10-10T02:51:06.326Z,8.60
2022-10-10T02:53:34.588Z,8.97
2022-10-10T02:56:02.367Z,8.83
2022-10-10T02:58:29.129Z,8.60
2022-10-10T03:00:56.248Z,8.47
2022-10-10T03:03:23.115Z,9.07
2022-10-10T03:05:51.092Z,8.83
2022-10-10T03:08:17.761Z,8.77
2022-10-10T03:10:58.150Z,9.20
2022-10-10T03:13:25.407Z,8.90
2022-10-10T03:15:52.614Z,8.47
2022-10-10T03:18:20.059Z,8.50
2022-10-10T03:20:50.921Z,8.80
2022-10-10T03:23:17.545Z,7.90
2022-10-10T03:25:44.185Z,8.47
2022-10-10T03:28:12.309Z,9.30
2022-10-10T03:30:39.699Z,8.40
2022-10-10T03:33:07.699Z,9.10
2022-10-10T03:35:34.643Z,8.50
2022-10-10T03:38:01.892Z,9.10
2022-10-10T03:40:29.283Z,8.90
2022-10-10T03:42:56.295Z,9.53
2022-10-10T03:45:23.278Z,8.90
2022-10-10T03:47:50.474Z,9.47
2022-10-10T03:50:17.860Z,9.10
2022-10-10T03:52:45.354Z,9.77
2022-10-10T03:55:11.998Z,9.57
2022-10-10T03:57:38.710Z,9.47
2022-10-10T04:00:06.128Z,9.50
2022-10-10T04:02:33.138Z,9.50
2022-10-10T04:05:00.637Z,9.83
2022-10-10T04:07:28.162Z,10.10
2022-10-10T04:09:54.815Z,10.57
2022-10-10T04:12:22.181Z,10.97
2022-10-10T04:14:49.056Z,10.30
2022-10-10T04:17:16.986Z,10.47
2022-10-10T04:19:43.701Z,10.10
2022-10-10T04:22:11.653Z,10.23
2022-10-10T04:24:38.369Z,9.37
2022-10-10T04:27:04.982Z,10.13
2022-10-10T04:29:31.686Z,10.20
2022-10-10T04:32:01.536Z,11.97
2022-10-10T04:34:28.497Z,12.00
2022-10-10T04:36:55.245Z,12.30
2022-10-10T04:39:22.244Z,13.90
2022-10-10T04:41:51.932Z,13.33
2022-10-10T04:44:19.055Z,13.40
2022-10-10T04:46:46.312Z,14.33
2022-10-10T04:49:13.063Z,12.13
2022-10-10T04:51:39.755Z,11.97
2022-10-10T04:54:06.505Z,10.40
2022-10-10T04:56:33.199Z,10.83
2022-10-10T04:58:59.799Z,10.33
2022-10-10T05:01:26.628Z,10.87
2022-10-10T05:03:54.278Z,10.50
2022-10-10T05:06:20.864Z,10.37
2022-10-10T05:08:47.499Z,9.83
2022-10-10T05:11:14.121Z,10.97
2022-10-10T05:13:40.791Z,10.03
2022-10-10T05:16:07.432Z,9.47
2022-10-10T05:18:39.995Z,10.07
2022-10-10T05:21:07.415Z,10.13
2022-10-10T05:23:35.801Z,10.20
2022-10-10T05:26:02.446Z,10.10
2022-10-10T05:28:29.109Z,10.57
2022-10-10T05:30:55.865Z,11.33
2022-10-10T05:33:22.526Z,10.67
2022-10-10T05:35:49.203Z,9.97
2022-10-10T05:38:15.906Z,10.07
2022-10-10T05:40:42.886Z,20.17
2022-10-10T05:43:09.551Z,14.20
2022-10-10T05:45:36.375Z,25.43
2022-10-10T05:48:02.997Z,24.37
2022-10-10T05:50:35.816Z,17.17
2022-10-10T05:53:02.522Z,18.97
2022-10-10T05:55:29.163Z,22.53
2022-10-10T05:57:56.013Z,18.27
2022-10-10T06:00:22.712Z,18.67
2022-10-10T06:02:49.784Z,17.27
2022-10-10T06:05:17.031Z,12.27
2022-10-10T06:08:03.370Z,15.40
2022-10-10T06:10:30.330Z,14.10
2022-10-10T06:12:56.986Z,13.33
2022-10-10T06:15:23.677Z,14.00
2022-10-10T06:17:50.314Z,15.83
2022-10-10T06:20:17.120Z,16.83
2022-10-10T06:22:43.751Z,16.17
2022-10-10T06:25:28.982Z,14.97
2022-10-10T06:27:57.130Z,14.27
2022-10-10T06:30:23.814Z,13.57
2022-10-10T06:32:53.641Z,13.17
2022-10-10T06:35:23.184Z,13.13
2022-10-10T06:37:49.814Z,11.83
2022-10-10T06:40:16.479Z,11.23
2022-10-10T06:42:43.105Z,11.17
2022-10-10T06:45:09.919Z,11.20
2022-10-10T06:47:36.542Z,10.97
2022-10-10T06:50:03.442Z,11.83
2022-10-10T06:52:30.063Z,10.43
2022-10-10T06:54:56.675Z,10.90
2022-10-10T06:57:23.304Z,11.13
2022-10-10T06:59:49.911Z,10.93
2022-10-10T07:02:16.553Z,10.63
2022-10-10T07:04:43.173Z,11.33
2022-10-10T07:07:09.862Z,11.03
2022-10-10T07:09:36.557Z,10.83
2022-10-10T07:12:03.284Z,10.93
2022-10-10T07:14:30.107Z,11.37
2022-10-10T07:16:56.761Z,10.93
2022-10-10T07:19:24.913Z,10.67
2022-10-10T07:21:51.863Z,11.50
2022-10-10T07:24:18.503Z,11.30
2022-10-10T07:26:45.108Z,11.70
2022-10-10T07:29:11.772Z,11.70
2022-10-10T07:31:38.406Z,15.33
2022-10-10T07:34:06.391Z,15.43
2022-10-10T07:36:33.051Z,14.38
2022-10-10T07:38:59.674Z,14.18
2022-10-10T07:41:26.307Z,12.75
2022-10-10T07:43:56.510Z,13.13
2022-10-10T07:46:23.249Z,12.68
2022-10-10T07:48:49.963Z,13.38
2022-10-10T07:51:16.681Z,12.93
2022-10-10T07:53:44.233Z,11.57
2022-10-10T07:56:11.352Z,12.80
2022-10-10T07:58:38.384Z,11.98
2022-10-10T08:01:06.818Z,11.45
2022-10-10T08:03:33.506Z,12.05
2022-10-10T08:06:06.937Z,11.15
2022-10-10T08:08:38.395Z,11.13
2022-10-10T08:11:10.652Z,11.38
2022-10-10T08:13:38.216Z,11.18
2022-10-10T08:16:05.343Z,11.50
2022-10-10T08:18:32.033Z,10.30
2022-10-10T08:21:06.845Z,10.63
2022-10-10T08:23:34.401Z,10.10
2022-10-10T08:26:03.218Z,9.45
2022-10-10T08:28:30.150Z,10.00
2022-10-10T08:30:57.310Z,9.30
2022-10-10T08:33:28.222Z,7.65
2022-10-10T08:35:55.414Z,5.15
2022-10-10T08:38:22.173Z,4.07
2022-10-10T08:40:51.260Z,3.13
2022-10-10T08:43:29.387Z,2.53
2022-10-10T08:45:58.275Z,2.10
2022-10-10T08:48:30.417Z,2.05
2022-10-10T08:51:05.786Z,1.95
2022-10-10T08:53:48.700Z,2.03
2022-10-10T08:56:23.891Z,2.28
2022-10-10T08:58:55.738Z,2.00
2022-10-10T09:01:34.620Z,1.70
2022-10-10T09:04:04.263Z,1.73
2022-10-10T09:06:49.063Z,1.83
2022-10-10T09:09:21.409Z,1.92
2022-10-10T09:11:50.756Z,1.80
2022-10-10T09:14:32.952Z,1.90
2022-10-10T09:17:29.300Z,2.03
2022-10-10T09:20:28.339Z,1.73
2022-10-10T09:23:00.687Z,1.60
2022-10-10T09:25:40.826Z,2.15
2022-10-10T09:28:36.513Z,2.05
2022-10-10T09:31:10.848Z,1.83
2022-10-10T09:33:44.275Z,2.17
2022-10-10T09:36:17.521Z,1.95
2022-10-10T09:38:50.061Z,2.53
2022-10-10T09:41:37.354Z,2.40
2022-10-10T09:44:09.892Z,1.88
2022-10-10T09:46:37.149Z,2.80
2022-10-10T09:49:04.958Z,2.38
2022-10-10T09:51:32.895Z,2.80
2022-10-10T09:54:01.066Z,3.20
2022-10-10T09:56:38.577Z,3.35
2022-10-10T09:59:05.459Z,3.28
2022-10-10T10:01:32.908Z,3.17
2022-10-10T10:04:29.718Z,2.95
2022-10-10T10:07:06.515Z,3.08
2022-10-10T10:09:33.670Z,2.80
2022-10-10T10:12:03.178Z,2.90
2022-10-10T10:14:35.340Z,3.03
2022-10-10T10:17:16.197Z,2.38
2022-10-10T10:19:47.203Z,3.47
2022-10-10T10:22:31.619Z,3.22
2022-10-10T10:25:00.043Z,3.58
2022-10-10T10:27:29.318Z,3.22
2022-10-10T10:29:59.391Z,3.25
2022-10-10T10:32:42.595Z,3.03
2022-10-10T10:35:34.122Z,2.50
2022-10-10T10:38:26.202Z,2.85
2022-10-10T10:41:14.143Z,2.30
2022-10-10T10:43:40.702Z,2.75
2022-10-10T10:46:39.889Z,2.88
2022-10-10T10:49:29.124Z,2.55
2022-10-10T10:52:20.740Z,2.78
2022-10-10T10:54:50.414Z,2.63
2022-10-10T10:58:04.070Z,2.50
2022-10-10T11:05:16.533Z,2.40
2022-10-10T11:07:18.928Z,2.80
2022-10-10T11:09:53.495Z,3.25
2022-10-10T11:12:53.301Z,3.17
2022-10-10T11:15:19.916Z,2.88
2022-10-10T11:18:09.849Z,2.95
2022-10-10T11:20:42.038Z,3.05
2022-10-10T11:23:19.764Z,2.88
2022-10-10T11:26:03.077Z,2.80
2022-10-10T11:28:37.266Z,2.90
2022-10-10T11:31:11.663Z,3.00
2022-10-10T11:33:46.954Z,2.75
2022-10-10T11:36:13.572Z,3.10
2022-10-10T11:39:19.123Z,3.28
2022-10-10T11:42:02.985Z,2.95
2022-10-10T11:45:01.973Z,2.60
2022-10-10T11:47:37.919Z,3.20
2022-10-10T11:50:27.654Z,2.92
2022-10-10T11:53:17.634Z,2.70
2022-10-10T11:55:59.195Z,2.20
2022-10-10T11:58:32.354Z,2.70
2022-10-10T12:01:13.108Z,2.35
2022-10-10T12:03:39.825Z,2.85
2022-10-10T12:06:33.319Z,2.75
2022-10-10T12:09:34.749Z,2.47
2022-10-10T12:12:27.521Z,2.58
2022-10-10T12:14:59.134Z,2.53
2022-10-10T12:17:32.238Z,2.90
2022-10-10T12:20:15.077Z,2.40
2022-10-10T12:22:42.296Z,2.78
2022-10-10T12:25:35.139Z,2.70
2022-10-10T12:28:57.093Z,2.80
2022-10-10T12:31:53.321Z,2.92
2022-10-10T12:34:49.060Z,2.72
2022-10-10T12:37:33.272Z,2.45
2022-10-10T12:40:05.976Z,2.72
2022-10-10T12:42:45.955Z,2.50
2022-10-10T12:45:31.480Z,2.38
2022-10-10T12:48:06.735Z,3.17
2022-10-10T12:50:40.400Z,2.28
2022-10-10T12:53:19.056Z,2.85
2022-10-10T12:55:48.298Z,2.28
2022-10-10T12:58:38.245Z,2.70
2022-10-10T13:01:19.442Z,2.33
2022-10-10T13:03:50.076Z,2.60
2022-10-10T13:06:39.320Z,2.58
2022-10-10T13:09:21.757Z,2.35
2022-10-10T13:12:05.979Z,2.03
2022-10-10T13:14:42.269Z,2.40
2022-10-10T13:17:32.252Z,2.25
2022-10-10T13:20:01.985Z,2.30
2022-10-10T13:22:34.063Z,2.17
2022-10-10T13:25:05.015Z,1.75
2022-10-10T13:27:35.100Z,2.10
2022-10-10T13:30:02.343Z,3.25
2022-10-10T13:32:34.606Z,2.60
2022-10-10T13:35:12.259Z,2.47
2022-10-10T13:37:41.119Z,3.15
2022-10-10T13:40:14.912Z,2.50
2022-10-10T13:42:42.105Z,2.35
2022-10-10T13:45:30.946Z,2.25
2022-10-10T13:48:16.932Z,2.47
2022-10-10T13:50:44.105Z,2.08
2022-10-10T13:53:29.996Z,2.40
2022-10-10T13:55:59.612Z,2.33
2022-10-10T13:58:40.048Z,2.45
2022-10-10T14:01:17.689Z,2.55
2022-10-10T14:03:47.426Z,2.72
2022-10-10T14:06:24.172Z,2.97
2022-10-10T14:08:52.727Z,2.22
2022-10-10T14:11:22.677Z,2.78
2022-10-10T14:14:06.849Z,2.15
2022-10-10T14:16:33.564Z,2.70
2022-10-10T14:19:00.229Z,2.55
2022-10-10T14:21:26.931Z,2.83
2022-10-10T14:23:53.722Z,2.75
2022-10-10T14:26:21.692Z,2.50
2022-10-10T14:28:49.488Z,3.10
2022-10-10T14:31:16.277Z,2.85
2022-10-10T14:33:42.988Z,2.30
2022-10-10T14:36:13.093Z,2.60
2022-10-10T14:38:39.908Z,3.10
2022-10-10T14:41:07.370Z,3.10
2022-10-10T14:43:34.407Z,2.67
2022-10-10T14:46:02.181Z,2.60
2022-10-10T14:48:29.010Z,2.85
2022-10-10T14:50:55.646Z,2.83
2022-10-10T14:53:23.406Z,2.60
2022-10-10T14:55:55.311Z,2.25
2022-10-10T14:58:23.035Z,2.50
2022-10-10T15:00:51.663Z,3.13
2022-10-10T15:03:18.959Z,3.00
2022-10-10T15:05:47.959Z,2.72
2022-10-10T15:08:16.493Z,3.20
2022-10-10T15:11:06.103Z,3.60
2022-10-10T15:13:48.047Z,2.92
2022-10-10T15:16:53.090Z,3.45
2022-10-10T15:19:41.446Z,3.58
2022-10-10T15:22:43.072Z,4.43
2022-10-10T15:25:10.294Z,5.00
2022-10-10T15:27:37.647Z,5.40
2022-10-10T15:30:06.291Z,6.10
2022-10-10T15:32:33.007Z,7.10
2022-10-10T15:35:00.568Z,10.80
2022-10-10T15:37:27.509Z,8.60
2022-10-10T15:39:54.244Z,11.02
2022-10-10T15:42:22.907Z,8.75
2022-10-10T15:44:50.803Z,15.20
2022-10-10T15:47:18.509Z,7.35
2022-10-10T15:49:45.275Z,7.80
2022-10-10T15:52:12.164Z,7.88
2022-10-10T15:54:38.957Z,7.60
2022-10-10T15:57:05.746Z,8.68
2022-10-10T15:59:32.846Z,8.45
2022-10-10T16:01:59.644Z,9.68
2022-10-10T16:04:26.517Z,9.90
2022-10-10T16:07:19.252Z,11.07
2022-10-10T16:09:41.578Z,10.27
2022-10-10T16:12:08.856Z,10.32
2022-10-10T16:14:36.013Z,11.52
2022-10-10T16:17:06.195Z,11.52
2022-10-10T16:19:36.160Z,12.55
2022-10-10T16:22:04.474Z,13.23
2022-10-10T16:24:33.593Z,13.43
2022-10-10T16:29:44.434Z,14.35
2022-10-10T16:32:17.760Z,13.88
2022-10-10T16:34:51.934Z,13.60
2022-10-10T16:37:32.788Z,6.95
2022-10-10T16:40:04.738Z,4.47
2022-10-10T16:42:31.584Z,3.80
2022-10-10T16:45:02.664Z,3.15
2022-10-10T16:47:30.648Z,2.28
2022-10-10T16:49:57.458Z,2.50
2022-10-10T16:52:24.176Z,3.28
2022-10-10T16:54:52.389Z,6.63
2022-10-10T16:57:19.825Z,5.75
2022-10-10T16:59:46.786Z,3.78
2022-10-10T17:02:14.237Z,2.90
2022-10-10T17:04:40.968Z,3.05
2022-10-10T17:07:07.643Z,2.88
2022-10-10T17:09:39.747Z,3.10
2022-10-10T17:14:54.373Z,3.47
2022-10-10T17:17:22.438Z,2.83
2022-10-10T17:19:49.339Z,2.88
2022-10-10T17:22:16.624Z,4.25
2022-10-10T17:24:43.182Z,4.13
2022-10-10T17:27:09.772Z,4.00
2022-10-10T17:29:36.950Z,3.20
2022-10-10T17:32:06.571Z,3.00
2022-10-10T17:34:33.592Z,3.13
2022-10-10T17:37:00.141Z,2.95
2022-10-10T17:39:26.726Z,3.30
2022-10-10T17:41:53.379Z,2.50
2022-10-10T17:44:20.046Z,3.53
2022-10-10T17:46:46.644Z,2.40
2022-10-10T17:49:14.024Z,2.33
2022-10-10T17:51:41.317Z,2.30
2022-10-10T17:54:08.431Z,2.75
2022-10-10T17:56:35.878Z,2.20
2022-10-10T17:59:05.471Z,3.67
2022-10-10T18:01:32.349Z,4.00
2022-10-10T18:03:59.556Z,3.75
2022-10-10T18:06:26.361Z,3.58
2022-10-10T18:08:53.960Z,5.50
2022-10-10T18:11:23.843Z,4.03
2022-10-10T18:13:51.406Z,4.38
2022-10-10T18:16:23.213Z,3.17
2022-10-10T18:18:52.028Z,3.13
2022-10-10T18:21:23.142Z,2.40
2022-10-10T18:23:50.329Z,3.60
2022-10-10T18:26:22.777Z,3.13
2022-10-10T18:28:52.259Z,3.83
2022-10-10T18:31:21.981Z,3.25
2022-10-10T18:33:48.756Z,3.00
2022-10-10T18:36:18.317Z,3.20
2022-10-10T18:38:45.566Z,3.60
2022-10-10T18:41:14.668Z,3.78
2022-10-10T18:43:42.438Z,3.42
2022-10-10T18:46:14.941Z,3.42
2022-10-10T18:48:42.602Z,3.60
2022-10-10T18:51:13.697Z,4.05
2022-10-10T18:53:42.494Z,3.70
2022-10-10T18:56:11.666Z,3.00
2022-10-10T18:58:38.361Z,2.88
2022-10-10T19:01:08.551Z,3.30
2022-10-10T19:03:36.924Z,3.55
2022-10-10T19:06:06.074Z,3.92
2022-10-10T19:08:32.980Z,3.40
2022-10-10T19:11:00.138Z,3.83
2022-10-10T19:13:27.808Z,3.42
2022-10-10T19:15:55.109Z,3.90
2022-10-10T19:18:22.790Z,3.53
2022-10-10T19:20:49.702Z,4.22
2022-10-10T19:23:16.329Z,4.78
2022-10-10T19:25:44.117Z,4.68
2022-10-10T19:28:10.733Z,5.40
2022-10-10T19:30:39.502Z,6.10
2022-10-10T19:33:06.447Z,7.35
2022-10-10T19:35:37.391Z,7.93
2022-10-10T19:38:05.938Z,7.00
2022-10-10T19:40:33.188Z,6.70
2022-10-10T19:42:59.940Z,6.47
2022-10-10T19:45:26.745Z,8.63
2022-10-10T19:47:53.502Z,7.97
2022-10-10T19:50:20.204Z,11.27
2022-10-10T19:52:46.783Z,11.60
2022-10-10T19:55:13.357Z,12.63
2022-10-10T19:57:39.977Z,10.82
2022-10-10T20:00:07.681Z,12.15
2022-10-10T20:02:34.421Z,10.05
2022-10-10T20:05:01.148Z,11.70
2022-10-10T20:07:27.843Z,9.02
2022-10-10T20:09:55.577Z,8.32
2022-10-10T20:12:22.558Z,9.57
2022-10-10T20:14:56.618Z,6.82
2022-10-10T20:17:23.469Z,5.63
2022-10-10T20:19:53.072Z,5.55
2022-10-10T20:22:20.355Z,5.30
2022-10-10T20:24:46.930Z,4.28
2022-10-10T20:27:13.699Z,4.75
2022-10-10T20:29:40.253Z,3.28
2022-10-10T20:32:06.957Z,4.45
2022-10-10T20:34:33.514Z,4.25
2022-10-10T20:37:00.111Z,3.92
2022-10-10T20:39:26.721Z,4.15
2022-10-10T20:41:53.320Z,4.80
2022-10-10T20:44:19.883Z,6.00
2022-10-10T20:46:46.518Z,4.15
2022-10-10T20:49:18.913Z,4.45
2022-10-10T20:51:48.816Z,4.20
2022-10-10T20:54:17.531Z,4.47
2022-10-10T20:56:44.800Z,3.88
2022-10-10T20:59:12.294Z,3.85
2022-10-10T21:01:39.612Z,4.43
2022-10-10T21:04:09.754Z,4.32
2022-10-10T21:06:37.459Z,4.57
2022-10-10T21:09:08.613Z,4.30
2022-10-10T21:11:35.589Z,4.50
2022-10-10T21:14:02.542Z,3.22
2022-10-10T21:16:32.813Z,4.07
2022-10-10T21:18:59.884Z,3.92
2022-10-10T21:21:30.753Z,3.97
2022-10-10T21:23:57.834Z,3.97
2022-10-10T21:26:26.314Z,3.00
2022-10-10T21:28:53.693Z,3.75
2022-10-10T21:31:27.909Z,3.85
2022-10-10T21:33:55.229Z,3.80
2022-10-10T21:36:23.692Z,4.60
2022-10-10T21:38:50.259Z,3.20
2022-10-10T21:41:19.499Z,3.75
2022-10-10T21:43:54.743Z,3.30
2022-10-10T21:46:33.608Z,4.32
2022-10-10T21:49:08.366Z,4.35
2022-10-10T21:51:38.035Z,3.70
2022-10-10T21:54:05.478Z,3.72
2022-10-10T21:56:32.063Z,4.07
2022-10-10T21:59:01.232Z,3.35
2022-10-10T22:01:28.737Z,3.30
2022-10-10T22:03:56.266Z,3.53
2022-10-10T22:06:24.322Z,3.30
2022-10-10T22:08:54.270Z,4.30
2022-10-10T22:11:24.040Z,3.78
2022-10-10T22:13:51.502Z,3.47
2022-10-10T22:16:19.558Z,3.67
2022-10-10T22:18:46.135Z,3.80
2022-10-10T22:21:15.947Z,3.33
2022-10-10T22:23:44.525Z,2.97
2022-10-10T22:26:14.552Z,3.50
2022-10-10T22:28:41.285Z,3.58
2022-10-10T22:31:09.658Z,3.15
2022-10-10T22:33:36.335Z,4.45
2022-10-10T22:36:04.817Z,3.13
2022-10-10T22:38:31.714Z,3.90
2022-10-10T22:40:58.398Z,3.55
2022-10-10T22:43:27.020Z,3.90
2022-10-10T22:45:54.335Z,3.20
2022-10-10T22:48:21.092Z,4.40
2022-10-10T22:50:47.799Z,3.45
2022-10-10T22:53:14.455Z,3.80
2022-10-10T22:55:41.170Z,4.15
2022-10-10T22:58:07.804Z,3.47
2022-10-10T23:00:34.401Z,3.25
2022-10-10T23:03:00.989Z,4.82
2022-10-10T23:05:27.701Z,3.75
2022-10-10T23:07:54.270Z,3.15
2022-10-10T23:10:20.809Z,3.40
2022-10-10T23:12:47.432Z,3.33
2022-10-10T23:15:14.054Z,4.22
2022-10-10T23:17:40.762Z,3.40
2022-10-10T23:20:09.026Z,3.33
2022-10-10T23:22:35.636Z,2.97
2022-10-10T23:25:02.254Z,3.97
2022-10-10T23:27:28.802Z,4.10
2022-10-10T23:29:55.428Z,3.45
2022-10-10T23:32:23.376Z,3.45
2022-10-10T23:34:49.940Z,3.47
2022-10-10T23:37:16.534Z,3.67
2022-10-10T23:39:43.437Z,3.20
2022-10-10T23:42:10.050Z,3.50
2022-10-10T23:44:36.687Z,3.95
2022-10-10T23:47:03.338Z,3.60
2022-10-10T23:49:29.986Z,3.63
2022-10-10T23:51:56.528Z,3.63
2022-10-10T23:54:23.146Z,3.38
2022-10-10T23:56:49.698Z,3.20
2022-10-10T23:59:16.573Z,3.47
